createdAt,value
2017-07-15T00:00:44.968Z,0
2017-07-15T00:01:46.386Z,0
2017-07-15T00:02:47.809Z,0
2017-07-15T00:03:49.236Z,0
2017-07-15T00:04:50.656Z,0
2017-07-15T00:05:52.126Z,0
2017-07-15T00:06:53.547Z,0
2017-07-15T00:07:54.966Z,0
2017-07-15T00:08:56.403Z,0
2017-07-15T00:09:57.822Z,0
2017-07-15T00:10:59.236Z,0
2017-07-15T00:12:00.657Z,0
2017-07-15T00:13:02.081Z,0
2017-07-15T00:14:03.585Z,0
2017-07-15T00:15:05.006Z,0
2017-07-15T00:16:06.433Z,0
2017-07-15T00:17:07.857Z,0
2017-07-15T00:18:09.283Z,0
2017-07-15T00:19:10.698Z,0
2017-07-15T00:20:12.125Z,0
2017-07-15T00:21:13.544Z,0
2017-07-15T00:22:14.961Z,0
2017-07-15T00:23:16.379Z,0
2017-07-15T00:24:17.799Z,0
2017-07-15T00:25:19.219Z,0
2017-07-15T00:26:20.637Z,0
2017-07-15T00:27:22.059Z,0
2017-07-15T00:28:23.479Z,0
2017-07-15T00:29:24.901Z,0
2017-07-15T00:30:26.319Z,0
2017-07-15T00:31:27.742Z,0
2017-07-15T00:32:29.172Z,0
2017-07-15T00:33:30.589Z,0
2017-07-15T00:34:32.015Z,0
2017-07-15T00:35:33.433Z,0
2017-07-15T00:36:34.859Z,0
2017-07-15T00:37:36.280Z,0
2017-07-15T00:38:37.697Z,0
2017-07-15T00:39:39.122Z,0
2017-07-15T00:40:40.534Z,0
2017-07-15T00:41:42.566Z,0
2017-07-15T00:42:44.076Z,0
2017-07-15T00:43:45.496Z,0
2017-07-15T00:44:46.911Z,0
2017-07-15T00:45:48.335Z,0
2017-07-15T00:46:49.757Z,0
2017-07-15T00:47:51.179Z,0
2017-07-15T00:48:52.604Z,0
2017-07-15T00:49:54.016Z,0
2017-07-15T00:50:55.440Z,0
2017-07-15T00:51:56.853Z,0
2017-07-15T00:52:58.274Z,0
2017-07-15T00:53:59.703Z,0
2017-07-15T00:55:01.124Z,0
2017-07-15T00:56:02.544Z,0
2017-07-15T00:57:03.967Z,0
2017-07-15T00:58:05.384Z,0
2017-07-15T00:59:06.806Z,0
2017-07-15T01:00:08.225Z,0
2017-07-15T01:01:09.645Z,0
2017-07-15T01:02:11.067Z,0
2017-07-15T01:03:12.486Z,0
2017-07-15T01:04:13.906Z,0
2017-07-15T01:05:15.326Z,0
2017-07-15T01:06:16.748Z,0
2017-07-15T01:07:18.163Z,0
2017-07-15T01:08:19.576Z,0
2017-07-15T01:09:20.996Z,0
2017-07-15T01:10:22.408Z,0
2017-07-15T01:11:23.824Z,0
2017-07-15T01:12:25.246Z,0
2017-07-15T01:13:26.679Z,0
2017-07-15T01:14:28.100Z,0
2017-07-15T01:15:29.521Z,0
2017-07-15T01:16:30.943Z,0
2017-07-15T01:17:32.358Z,0
2017-07-15T01:18:33.775Z,0
2017-07-15T01:19:35.203Z,0
2017-07-15T01:20:36.626Z,0
2017-07-15T01:21:38.047Z,0
2017-07-15T01:22:39.546Z,0
2017-07-15T01:23:40.966Z,0
2017-07-15T01:24:42.391Z,0
2017-07-15T01:25:43.806Z,0
2017-07-15T01:26:45.226Z,0
2017-07-15T01:27:46.645Z,0
2017-07-15T01:28:48.067Z,0
2017-07-15T01:29:49.502Z,0
2017-07-15T01:30:50.918Z,0
2017-07-15T01:31:52.333Z,0
2017-07-15T01:32:53.807Z,0
2017-07-15T01:33:55.221Z,0
2017-07-15T01:34:56.642Z,0
2017-07-15T01:35:58.119Z,0
2017-07-15T01:36:59.551Z,0
2017-07-15T01:38:00.973Z,0
2017-07-15T01:39:02.397Z,0
2017-07-15T01:40:03.817Z,0
2017-07-15T01:41:05.231Z,0
2017-07-15T01:42:06.659Z,0
2017-07-15T01:43:08.077Z,0
2017-07-15T01:44:09.499Z,0
2017-07-15T01:45:10.916Z,0
2017-07-15T01:46:12.330Z,0
2017-07-15T01:47:13.749Z,0
2017-07-15T01:48:15.775Z,0
2017-07-15T01:49:17.197Z,0
2017-07-15T01:50:18.620Z,0
2017-07-15T01:51:20.037Z,0
2017-07-15T01:52:21.455Z,0
2017-07-15T01:53:22.873Z,0
2017-07-15T01:54:24.295Z,0
2017-07-15T01:55:25.710Z,0
2017-07-15T01:56:27.126Z,0
2017-07-15T01:57:28.551Z,0
2017-07-15T01:58:29.962Z,0
2017-07-15T01:59:31.382Z,0
2017-07-15T02:00:32.801Z,0
2017-07-15T02:01:34.214Z,0
2017-07-15T02:02:35.645Z,0
2017-07-15T02:03:37.061Z,0
2017-07-15T02:04:38.477Z,0
2017-07-15T02:05:39.898Z,0
2017-07-15T02:06:41.312Z,0
2017-07-15T02:07:42.739Z,0
2017-07-15T02:08:44.154Z,0
2017-07-15T02:09:45.575Z,0
2017-07-15T02:10:46.992Z,0
2017-07-15T02:11:48.409Z,0
2017-07-15T02:12:49.836Z,0
2017-07-15T02:13:51.256Z,0
2017-07-15T02:14:52.672Z,0
2017-07-15T02:15:54.095Z,0
2017-07-15T02:16:55.510Z,0
2017-07-15T02:17:56.948Z,0
2017-07-15T02:18:58.365Z,0
2017-07-15T02:19:59.786Z,0
2017-07-15T02:21:01.208Z,0
2017-07-15T02:22:02.634Z,0
2017-07-15T02:23:04.054Z,0
2017-07-15T02:24:05.473Z,0
2017-07-15T02:25:06.897Z,0
2017-07-15T02:26:08.344Z,0
2017-07-15T02:27:09.768Z,0
2017-07-15T02:28:11.180Z,0
2017-07-15T02:29:12.609Z,0
2017-07-15T02:30:14.044Z,0
2017-07-15T02:31:15.463Z,0
2017-07-15T02:32:16.899Z,0
2017-07-15T02:33:18.316Z,0
2017-07-15T02:34:19.746Z,0
2017-07-15T02:35:21.164Z,0
2017-07-15T02:36:22.586Z,0
2017-07-15T02:37:24.013Z,0
2017-07-15T02:38:25.436Z,0
2017-07-15T02:39:26.877Z,0
2017-07-15T02:40:28.302Z,0
2017-07-15T02:41:29.721Z,0
2017-07-15T02:42:31.145Z,0
2017-07-15T02:43:32.567Z,0
2017-07-15T02:44:33.988Z,0
2017-07-15T02:45:35.404Z,0
2017-07-15T02:46:37.571Z,0
2017-07-15T02:47:38.999Z,0
2017-07-15T02:48:40.419Z,0
2017-07-15T02:49:41.838Z,0
2017-07-15T02:50:43.258Z,0
2017-07-15T02:51:44.673Z,0
2017-07-15T02:52:46.104Z,0
2017-07-15T02:53:47.519Z,0
2017-07-15T02:54:48.936Z,0
2017-07-15T02:55:50.355Z,0
2017-07-15T02:56:51.779Z,0
2017-07-15T02:57:53.190Z,0
2017-07-15T02:58:54.607Z,0
2017-07-15T02:59:56.030Z,0
2017-07-15T03:00:57.456Z,0
2017-07-15T03:01:58.876Z,0
2017-07-15T03:03:00.295Z,4
2017-07-15T03:04:01.712Z,4
2017-07-15T03:05:03.136Z,4
2017-07-15T03:06:04.553Z,4
2017-07-15T03:07:05.972Z,0
2017-07-15T03:08:07.392Z,0
2017-07-15T03:09:08.813Z,4
2017-07-15T03:10:10.232Z,4
2017-07-15T03:11:11.655Z,4
2017-07-15T03:12:13.078Z,4
2017-07-15T03:13:14.502Z,4
2017-07-15T03:14:15.927Z,8
2017-07-15T03:15:17.349Z,4
2017-07-15T03:16:18.767Z,4
2017-07-15T03:17:20.187Z,4
2017-07-15T03:18:21.608Z,8
2017-07-15T03:19:23.025Z,8
2017-07-15T03:20:25.032Z,8
2017-07-15T03:21:26.458Z,8
2017-07-15T03:22:27.873Z,8
2017-07-15T03:23:29.298Z,8
2017-07-15T03:24:30.716Z,12
2017-07-15T03:25:32.874Z,12
2017-07-15T03:26:34.294Z,12
2017-07-15T03:27:35.716Z,8
2017-07-15T03:28:37.135Z,12
2017-07-15T03:29:38.557Z,12
2017-07-15T03:30:39.976Z,12
2017-07-15T03:31:41.399Z,16
2017-07-15T03:32:42.825Z,20
2017-07-15T03:33:44.259Z,16
2017-07-15T03:34:45.711Z,20
2017-07-15T03:35:47.128Z,16
2017-07-15T03:36:48.549Z,24
2017-07-15T03:37:50.047Z,28
2017-07-15T03:38:51.467Z,28
2017-07-15T03:39:52.887Z,20
2017-07-15T03:40:54.305Z,20
2017-07-15T03:41:55.780Z,20
2017-07-15T03:42:57.204Z,20
2017-07-15T03:43:58.631Z,20
2017-07-15T03:45:00.054Z,24
2017-07-15T03:46:01.477Z,36
2017-07-15T03:47:02.890Z,44
2017-07-15T03:48:04.313Z,48
2017-07-15T03:49:05.739Z,52
2017-07-15T03:50:07.168Z,52
2017-07-15T03:51:08.590Z,40
2017-07-15T03:52:10.009Z,28
2017-07-15T03:53:11.432Z,28
2017-07-15T03:54:12.857Z,24
2017-07-15T03:55:14.276Z,32
2017-07-15T03:56:15.692Z,40
2017-07-15T03:57:17.113Z,36
2017-07-15T03:58:18.533Z,36
2017-07-15T03:59:19.960Z,40
2017-07-15T04:00:21.386Z,48
2017-07-15T04:01:22.808Z,56
2017-07-15T04:02:24.225Z,56
2017-07-15T04:03:25.649Z,60
2017-07-15T04:04:27.069Z,68
2017-07-15T04:05:28.495Z,64
2017-07-15T04:06:29.919Z,68
2017-07-15T04:07:31.340Z,80
2017-07-15T04:08:32.758Z,104
2017-07-15T04:09:34.177Z,124
2017-07-15T04:10:35.605Z,132
2017-07-15T04:11:37.024Z,132
2017-07-15T04:12:38.449Z,132
2017-07-15T04:13:39.865Z,128
2017-07-15T04:14:41.285Z,132
2017-07-15T04:15:42.711Z,136
2017-07-15T04:16:44.143Z,144
2017-07-15T04:17:45.560Z,140
2017-07-15T04:18:46.976Z,140
2017-07-15T04:19:48.400Z,152
2017-07-15T04:20:49.830Z,156
2017-07-15T04:21:51.255Z,156
2017-07-15T04:22:52.685Z,132
2017-07-15T04:23:54.109Z,136
2017-07-15T04:24:55.529Z,128
2017-07-15T04:25:56.945Z,120
2017-07-15T04:26:58.368Z,124
2017-07-15T04:27:59.829Z,128
2017-07-15T04:29:01.248Z,132
2017-07-15T04:30:02.669Z,136
2017-07-15T04:31:04.155Z,140
2017-07-15T04:32:05.580Z,140
2017-07-15T04:33:07.715Z,144
2017-07-15T04:34:09.138Z,152
2017-07-15T04:35:10.560Z,144
2017-07-15T04:36:11.983Z,132
2017-07-15T04:37:13.411Z,108
2017-07-15T04:38:14.834Z,92
2017-07-15T04:39:16.255Z,92
2017-07-15T04:40:17.680Z,112
2017-07-15T04:41:19.098Z,116
2017-07-15T04:42:20.518Z,120
2017-07-15T04:43:21.950Z,124
2017-07-15T04:44:23.365Z,128
2017-07-15T04:45:24.782Z,132
2017-07-15T04:46:26.218Z,144
2017-07-15T04:47:27.642Z,168
2017-07-15T04:48:29.063Z,168
2017-07-15T04:49:30.491Z,172
2017-07-15T04:50:31.913Z,196
2017-07-15T04:51:33.342Z,196
2017-07-15T04:52:34.763Z,196
2017-07-15T04:53:36.186Z,216
2017-07-15T04:54:37.600Z,224
2017-07-15T04:55:39.022Z,216
2017-07-15T04:56:40.449Z,224
2017-07-15T04:57:41.868Z,264
2017-07-15T04:58:43.291Z,304
2017-07-15T04:59:44.708Z,328
2017-07-15T05:00:46.130Z,364
2017-07-15T05:01:47.550Z,384
2017-07-15T05:02:48.973Z,396
2017-07-15T05:03:50.403Z,352
2017-07-15T05:04:51.826Z,332
2017-07-15T05:05:53.247Z,320
2017-07-15T05:06:54.663Z,316
2017-07-15T05:07:56.123Z,380
2017-07-15T05:08:57.553Z,452
2017-07-15T05:09:58.980Z,436
2017-07-15T05:11:00.402Z,452
2017-07-15T05:12:01.828Z,476
2017-07-15T05:13:03.260Z,480
2017-07-15T05:14:04.692Z,464
2017-07-15T05:15:06.123Z,456
2017-07-15T05:16:07.541Z,436
2017-07-15T05:17:08.964Z,444
2017-07-15T05:18:10.395Z,428
2017-07-15T05:19:11.814Z,372
2017-07-15T05:20:13.232Z,336
2017-07-15T05:21:14.669Z,376
2017-07-15T05:22:16.084Z,372
2017-07-15T05:23:17.506Z,404
2017-07-15T05:24:18.938Z,416
2017-07-15T05:25:20.363Z,432
2017-07-15T05:26:21.784Z,452
2017-07-15T05:27:23.206Z,472
2017-07-15T05:28:24.626Z,416
2017-07-15T05:29:26.055Z,340
2017-07-15T05:30:27.481Z,340
2017-07-15T05:31:28.900Z,452
2017-07-15T05:32:30.341Z,532
2017-07-15T05:33:31.763Z,576
2017-07-15T05:34:33.196Z,564
2017-07-15T05:35:34.624Z,420
2017-07-15T05:36:36.048Z,420
2017-07-15T05:37:37.475Z,344
2017-07-15T05:38:38.897Z,380
2017-07-15T05:39:40.321Z,384
2017-07-15T05:40:41.748Z,376
2017-07-15T05:41:43.171Z,388
2017-07-15T05:42:44.598Z,480
2017-07-15T05:43:46.029Z,600
2017-07-15T05:44:47.449Z,700
2017-07-15T05:45:48.870Z,728
2017-07-15T05:46:50.289Z,732
2017-07-15T05:47:51.714Z,688
2017-07-15T05:48:53.148Z,616
2017-07-15T05:49:54.566Z,584
2017-07-15T05:50:55.995Z,636
2017-07-15T05:51:57.419Z,732
2017-07-15T05:52:58.844Z,816
2017-07-15T05:54:00.266Z,828
2017-07-15T05:55:01.690Z,784
2017-07-15T05:56:03.108Z,728
2017-07-15T05:57:04.530Z,700
2017-07-15T05:58:05.957Z,700
2017-07-15T05:59:07.386Z,672
2017-07-15T06:00:08.810Z,716
2017-07-15T06:01:10.257Z,808
2017-07-15T06:02:11.684Z,856
2017-07-15T06:03:13.111Z,860
2017-07-15T06:04:14.534Z,880
2017-07-15T06:05:15.961Z,956
2017-07-15T06:06:17.397Z,1016
2017-07-15T06:07:18.821Z,1088
2017-07-15T06:08:20.248Z,1124
2017-07-15T06:09:21.672Z,1156
2017-07-15T06:10:23.095Z,1180
2017-07-15T06:11:24.522Z,1200
2017-07-15T06:12:25.954Z,1228
2017-07-15T06:13:27.381Z,1204
2017-07-15T06:14:28.810Z,1208
2017-07-15T06:15:30.231Z,1156
2017-07-15T06:16:31.669Z,1200
2017-07-15T06:17:33.097Z,1152
2017-07-15T06:18:34.525Z,1080
2017-07-15T06:19:35.945Z,956
2017-07-15T06:20:37.375Z,872
2017-07-15T06:21:38.802Z,848
2017-07-15T06:22:40.219Z,840
2017-07-15T06:23:41.638Z,828
2017-07-15T06:24:43.067Z,872
2017-07-15T06:25:44.493Z,912
2017-07-15T06:26:45.913Z,836
2017-07-15T06:27:47.332Z,792
2017-07-15T06:28:48.759Z,800
2017-07-15T06:29:50.177Z,784
2017-07-15T06:30:51.609Z,804
2017-07-15T06:31:53.034Z,824
2017-07-15T06:32:54.457Z,852
2017-07-15T06:33:55.883Z,876
2017-07-15T06:34:57.315Z,940
2017-07-15T06:35:58.739Z,924
2017-07-15T06:37:00.157Z,900
2017-07-15T06:38:01.572Z,868
2017-07-15T06:39:03.017Z,860
2017-07-15T06:40:04.437Z,896
2017-07-15T06:41:05.865Z,1076
2017-07-15T06:42:07.285Z,1220
2017-07-15T06:43:08.705Z,1276
2017-07-15T06:44:10.131Z,1312
2017-07-15T06:45:11.570Z,1352
2017-07-15T06:46:12.994Z,1488
2017-07-15T06:47:14.429Z,1508
2017-07-15T06:48:15.857Z,1512
2017-07-15T06:49:17.283Z,1556
2017-07-15T06:50:18.711Z,1628
2017-07-15T06:51:20.140Z,1636
2017-07-15T06:52:21.564Z,1640
2017-07-15T06:53:22.989Z,1616
2017-07-15T06:54:24.413Z,1628
2017-07-15T06:55:25.846Z,1688
2017-07-15T06:56:27.277Z,1728
2017-07-15T06:57:28.717Z,1720
2017-07-15T06:58:30.173Z,1696
2017-07-15T06:59:31.601Z,1644
2017-07-15T07:00:33.027Z,1612
2017-07-15T07:01:34.447Z,1516
2017-07-15T07:02:35.953Z,1296
2017-07-15T07:03:37.383Z,1180
2017-07-15T07:04:38.809Z,1184
2017-07-15T07:05:40.292Z,1200
2017-07-15T07:06:41.721Z,1172
2017-07-15T07:07:43.150Z,1156
2017-07-15T07:08:44.573Z,1216
2017-07-15T07:09:45.995Z,1328
2017-07-15T07:10:47.501Z,1384
2017-07-15T07:11:48.933Z,1492
2017-07-15T07:12:50.377Z,1540
2017-07-15T07:13:51.815Z,1460
2017-07-15T07:14:53.245Z,1324
2017-07-15T07:15:54.677Z,1188
2017-07-15T07:16:56.905Z,1080
2017-07-15T07:17:58.332Z,1148
2017-07-15T07:18:59.757Z,1416
2017-07-15T07:20:01.176Z,1360
2017-07-15T07:21:02.607Z,1324
2017-07-15T07:22:04.036Z,1356
2017-07-15T07:23:05.457Z,1380
2017-07-15T07:24:06.882Z,1392
2017-07-15T07:25:08.312Z,1536
2017-07-15T07:26:09.735Z,1628
2017-07-15T07:27:11.156Z,1672
2017-07-15T07:28:12.585Z,1844
2017-07-15T07:29:14.010Z,1940
2017-07-15T07:30:15.439Z,2068
2017-07-15T07:31:16.861Z,2072
2017-07-15T07:32:18.286Z,2016
2017-07-15T07:33:19.716Z,1896
2017-07-15T07:34:21.142Z,1840
2017-07-15T07:35:22.580Z,1752
2017-07-15T07:36:23.995Z,1596
2017-07-15T07:37:25.424Z,1576
2017-07-15T07:38:26.850Z,1644
2017-07-15T07:39:28.277Z,1872
2017-07-15T07:40:29.709Z,2048
2017-07-15T07:41:31.137Z,2104
2017-07-15T07:42:32.559Z,2032
2017-07-15T07:43:33.990Z,2012
2017-07-15T07:44:35.428Z,1900
2017-07-15T07:45:36.863Z,2028
2017-07-15T07:46:38.292Z,2072
2017-07-15T07:47:39.721Z,2084
2017-07-15T07:48:41.149Z,1976
2017-07-15T07:49:42.573Z,1928
2017-07-15T07:50:44.006Z,1796
2017-07-15T07:51:45.432Z,1644
2017-07-15T07:52:46.867Z,1436
2017-07-15T07:53:48.289Z,1432
2017-07-15T07:54:49.715Z,1556
2017-07-15T07:55:51.141Z,1680
2017-07-15T07:56:52.564Z,1928
2017-07-15T07:57:54.000Z,1956
2017-07-15T07:58:55.437Z,2064
2017-07-15T07:59:56.875Z,2100
2017-07-15T08:00:58.315Z,2116
2017-07-15T08:01:59.743Z,2116
2017-07-15T08:03:01.174Z,2112
2017-07-15T08:04:02.607Z,2184
2017-07-15T08:05:04.029Z,2088
2017-07-15T08:06:05.453Z,2084
2017-07-15T08:07:06.886Z,2260
2017-07-15T08:08:08.312Z,2140
2017-07-15T08:09:09.742Z,2048
2017-07-15T08:10:11.175Z,2096
2017-07-15T08:11:12.601Z,1796
2017-07-15T08:12:14.097Z,1680
2017-07-15T08:13:15.525Z,1616
2017-07-15T08:14:16.957Z,1624
2017-07-15T08:15:18.385Z,1744
2017-07-15T08:16:19.877Z,1788
2017-07-15T08:17:21.302Z,1596
2017-07-15T08:18:22.729Z,1500
2017-07-15T08:19:24.240Z,1344
2017-07-15T08:20:25.671Z,1168
2017-07-15T08:21:27.096Z,1024
2017-07-15T08:22:28.524Z,968
2017-07-15T08:23:29.961Z,916
2017-07-15T08:24:31.395Z,900
2017-07-15T08:25:32.824Z,884
2017-07-15T08:26:34.252Z,824
2017-07-15T08:27:35.688Z,800
2017-07-15T08:28:37.116Z,820
2017-07-15T08:29:38.543Z,804
2017-07-15T08:30:39.982Z,840
2017-07-15T08:31:41.409Z,780
2017-07-15T08:32:42.829Z,764
2017-07-15T08:33:44.257Z,916
2017-07-15T08:34:45.681Z,968
2017-07-15T08:35:47.106Z,1104
2017-07-15T08:36:48.541Z,1316
2017-07-15T08:37:49.961Z,1412
2017-07-15T08:38:51.385Z,1560
2017-07-15T08:39:52.814Z,1676
2017-07-15T08:40:54.257Z,1784
2017-07-15T08:41:55.692Z,1820
2017-07-15T08:42:57.118Z,1916
2017-07-15T08:43:58.553Z,1892
2017-07-15T08:44:59.979Z,1660
2017-07-15T08:46:01.406Z,1464
2017-07-15T08:47:02.839Z,1312
2017-07-15T08:48:04.267Z,1264
2017-07-15T08:49:05.694Z,1144
2017-07-15T08:50:07.119Z,1096
2017-07-15T08:51:08.544Z,1168
2017-07-15T08:52:09.974Z,1240
2017-07-15T08:53:11.397Z,1412
2017-07-15T08:54:12.824Z,1492
2017-07-15T08:55:14.253Z,1868
2017-07-15T08:56:15.687Z,2004
2017-07-15T08:57:17.115Z,2276
2017-07-15T08:58:18.550Z,2528
2017-07-15T08:59:19.980Z,2396
2017-07-15T09:00:21.411Z,2528
2017-07-15T09:01:22.835Z,2632
2017-07-15T09:02:24.264Z,2704
2017-07-15T09:03:25.699Z,2220
2017-07-15T09:04:27.138Z,1732
2017-07-15T09:05:28.563Z,1284
2017-07-15T09:06:30.014Z,988
2017-07-15T09:07:31.439Z,820
2017-07-15T09:08:32.867Z,756
2017-07-15T09:09:34.291Z,912
2017-07-15T09:10:35.722Z,960
2017-07-15T09:11:37.146Z,1160
2017-07-15T09:12:38.579Z,1344
2017-07-15T09:13:40.012Z,1576
2017-07-15T09:14:41.443Z,1796
2017-07-15T09:15:42.875Z,1868
2017-07-15T09:16:44.301Z,1644
2017-07-15T09:17:45.725Z,1512
2017-07-15T09:18:47.152Z,1332
2017-07-15T09:19:48.579Z,1136
2017-07-15T09:20:50.054Z,1044
2017-07-15T09:21:51.479Z,1004
2017-07-15T09:22:52.912Z,1156
2017-07-15T09:23:54.336Z,1404
2017-07-15T09:24:55.766Z,1340
2017-07-15T09:25:57.200Z,1608
2017-07-15T09:26:58.629Z,1540
2017-07-15T09:28:00.059Z,1540
2017-07-15T09:29:01.494Z,1496
2017-07-15T09:30:02.916Z,1568
2017-07-15T09:31:04.335Z,1612
2017-07-15T09:32:05.769Z,1704
2017-07-15T09:33:07.207Z,1884
2017-07-15T09:34:08.643Z,1692
2017-07-15T09:35:10.072Z,1524
2017-07-15T09:36:11.505Z,1492
2017-07-15T09:37:12.933Z,1444
2017-07-15T09:38:14.369Z,1436
2017-07-15T09:39:15.895Z,1352
2017-07-15T09:40:17.325Z,1260
2017-07-15T09:41:18.757Z,1160
2017-07-15T09:42:20.190Z,1220
2017-07-15T09:43:21.617Z,1432
2017-07-15T09:44:23.042Z,2024
2017-07-15T09:45:25.514Z,2424
2017-07-15T09:46:27.032Z,3044
2017-07-15T09:47:28.437Z,3584
2017-07-15T09:48:29.874Z,3276
2017-07-15T09:49:31.307Z,3144
2017-07-15T09:50:32.735Z,2868
2017-07-15T09:51:34.219Z,2480
2017-07-15T09:52:35.650Z,2068
2017-07-15T09:53:37.080Z,1288
2017-07-15T09:54:38.515Z,984
2017-07-15T09:55:39.957Z,860
2017-07-15T09:56:41.393Z,776
2017-07-15T09:57:42.830Z,768
2017-07-15T09:58:44.263Z,816
2017-07-15T09:59:45.691Z,920
2017-07-15T10:00:47.120Z,1096
2017-07-15T10:01:48.555Z,1240
2017-07-15T10:02:49.997Z,1296
2017-07-15T10:03:51.434Z,1308
2017-07-15T10:04:52.853Z,1284
2017-07-15T10:05:54.279Z,1224
2017-07-15T10:06:55.706Z,1264
2017-07-15T10:07:57.135Z,1212
2017-07-15T10:08:58.573Z,1160
2017-07-15T10:10:00.001Z,1104
2017-07-15T10:11:01.423Z,1064
2017-07-15T10:12:03.031Z,1036
2017-07-15T10:13:04.464Z,988
2017-07-15T10:14:05.980Z,956
2017-07-15T10:15:07.416Z,1600
2017-07-15T10:16:08.841Z,1600
2017-07-15T10:17:10.390Z,1616
2017-07-15T10:18:11.829Z,1652
2017-07-15T10:19:13.263Z,1952
2017-07-15T10:20:14.694Z,2364
2017-07-15T10:21:16.116Z,2584
2017-07-15T10:22:17.559Z,2540
2017-07-15T10:23:18.990Z,2628
2017-07-15T10:24:20.431Z,2760
2017-07-15T10:25:21.862Z,2736
2017-07-15T10:26:23.293Z,2708
2017-07-15T10:27:24.724Z,2460
2017-07-15T10:28:26.161Z,2408
2017-07-15T10:29:27.592Z,2092
2017-07-15T10:30:29.020Z,1868
2017-07-15T10:31:30.456Z,1296
2017-07-15T10:32:31.987Z,1028
2017-07-15T10:33:33.415Z,1120
2017-07-15T10:34:35.699Z,1340
2017-07-15T10:35:37.125Z,1316
2017-07-15T10:36:38.551Z,1308
2017-07-15T10:37:39.980Z,1320
2017-07-15T10:38:41.423Z,1368
2017-07-15T10:39:42.850Z,1464
2017-07-15T10:40:44.296Z,1464
2017-07-15T10:41:45.707Z,1448
2017-07-15T10:42:47.145Z,1468
2017-07-15T10:43:48.583Z,1496
2017-07-15T10:44:50.013Z,1584
2017-07-15T10:45:51.451Z,1540
2017-07-15T10:46:52.873Z,1648
2017-07-15T10:47:54.311Z,1968
2017-07-15T10:48:55.743Z,2192
2017-07-15T10:49:57.175Z,2284
2017-07-15T10:50:58.610Z,2184
2017-07-15T10:52:00.042Z,2372
2017-07-15T10:53:01.469Z,2640
2017-07-15T10:54:02.898Z,2744
2017-07-15T10:55:04.335Z,2772
2017-07-15T10:56:05.778Z,2648
2017-07-15T10:57:07.217Z,2652
2017-07-15T10:58:08.653Z,3052
2017-07-15T10:59:10.082Z,2992
2017-07-15T11:00:11.515Z,3360
2017-07-15T11:01:12.946Z,3020
2017-07-15T11:02:14.897Z,2868
2017-07-15T11:03:16.315Z,2736
2017-07-15T11:04:17.751Z,2540
2017-07-15T11:05:19.183Z,1992
2017-07-15T11:06:20.611Z,1716
2017-07-15T11:07:22.034Z,1600
2017-07-15T11:08:23.464Z,1520
2017-07-15T11:09:24.892Z,1448
2017-07-15T11:10:26.324Z,1328
2017-07-15T11:11:27.757Z,1152
2017-07-15T11:12:29.187Z,1064
2017-07-15T11:13:30.607Z,972
2017-07-15T11:14:32.029Z,908
2017-07-15T11:15:33.460Z,864
2017-07-15T11:16:34.896Z,856
2017-07-15T11:17:36.317Z,948
2017-07-15T11:18:37.740Z,984
2017-07-15T11:19:39.166Z,1020
2017-07-15T11:20:40.624Z,1104
2017-07-15T11:21:42.049Z,1152
2017-07-15T11:22:43.478Z,1160
2017-07-15T11:23:44.906Z,1236
2017-07-15T11:24:46.333Z,1336
2017-07-15T11:25:47.759Z,1380
2017-07-15T11:26:49.208Z,1412
2017-07-15T11:27:50.645Z,1408
2017-07-15T11:28:52.076Z,1392
2017-07-15T11:29:53.505Z,1420
2017-07-15T11:30:54.935Z,1416
2017-07-15T11:31:56.369Z,1488
2017-07-15T11:32:57.795Z,1460
2017-07-15T11:33:59.230Z,1452
2017-07-15T11:35:01.356Z,1524
2017-07-15T11:36:02.789Z,1620
2017-07-15T11:37:04.218Z,1772
2017-07-15T11:38:05.645Z,1952
2017-07-15T11:39:07.592Z,2048
2017-07-15T11:40:09.558Z,2192
2017-07-15T11:41:10.993Z,2264
2017-07-15T11:42:12.418Z,2308
2017-07-15T11:43:14.527Z,2396
2017-07-15T11:44:15.961Z,2700
2017-07-15T11:45:17.393Z,2992
2017-07-15T11:46:18.814Z,3340
2017-07-15T11:47:20.251Z,3692
2017-07-15T11:48:21.685Z,3788
2017-07-15T11:49:23.112Z,4012
2017-07-15T11:50:24.547Z,4100
2017-07-15T11:51:25.979Z,5292
2017-07-15T11:52:27.405Z,5008
2017-07-15T11:53:28.834Z,5140
2017-07-15T11:54:30.275Z,4916
2017-07-15T11:55:31.694Z,4900
2017-07-15T11:56:33.131Z,4780
2017-07-15T11:57:34.567Z,4468
2017-07-15T11:58:35.999Z,4252
2017-07-15T11:59:37.426Z,4480
2017-07-15T12:00:38.854Z,3788
2017-07-15T12:01:40.288Z,3720
2017-07-15T12:02:41.728Z,3952
2017-07-15T12:03:43.171Z,5260
2017-07-15T12:04:44.604Z,4552
2017-07-15T12:05:46.031Z,4408
2017-07-15T12:06:47.767Z,4368
2017-07-15T12:07:49.196Z,4304
2017-07-15T12:08:50.623Z,4852
2017-07-15T12:09:52.056Z,3380
2017-07-15T12:10:53.491Z,3640
2017-07-15T12:11:54.915Z,2856
2017-07-15T12:12:56.365Z,3368
2017-07-15T12:13:57.787Z,2880
2017-07-15T12:14:59.228Z,3348
2017-07-15T12:16:00.655Z,3888
2017-07-15T12:17:02.088Z,4556
2017-07-15T12:18:03.526Z,3892
2017-07-15T12:19:05.005Z,4368
2017-07-15T12:20:06.461Z,4540
2017-07-15T12:21:08.079Z,4432
2017-07-15T12:22:09.513Z,4464
2017-07-15T12:23:10.955Z,4548
2017-07-15T12:24:12.398Z,4484
2017-07-15T12:25:13.834Z,4500
2017-07-15T12:26:15.266Z,4408
2017-07-15T12:27:16.733Z,4104
2017-07-15T12:28:18.171Z,3788
2017-07-15T12:29:19.610Z,4016
2017-07-15T12:30:21.047Z,4256
2017-07-15T12:31:22.477Z,4484
2017-07-15T12:32:23.910Z,4740
2017-07-15T12:33:25.344Z,4576
2017-07-15T12:34:26.789Z,4520
2017-07-15T12:35:28.252Z,4000
2017-07-15T12:36:29.703Z,3540
2017-07-15T12:37:31.233Z,3124
2017-07-15T12:38:32.708Z,3580
2017-07-15T12:39:34.169Z,4136
2017-07-15T12:40:35.624Z,4524
2017-07-15T12:41:37.079Z,4816
2017-07-15T12:42:38.567Z,4620
2017-07-15T12:43:40.004Z,4932
2017-07-15T12:44:41.467Z,4924
2017-07-15T12:45:42.979Z,5228
2017-07-15T12:46:44.520Z,4864
2017-07-15T12:47:46.087Z,4640
2017-07-15T12:48:47.633Z,4980
2017-07-15T12:49:49.086Z,4968
2017-07-15T12:50:50.600Z,4904
2017-07-15T12:51:52.160Z,4248
2017-07-15T12:52:54.476Z,3264
2017-07-15T12:53:56.050Z,3232
2017-07-15T12:54:57.593Z,3244
2017-07-15T12:55:59.114Z,3308
2017-07-15T12:57:00.617Z,3208
2017-07-15T12:58:02.087Z,2972
2017-07-15T12:59:03.635Z,2808
2017-07-15T13:00:05.934Z,2956
2017-07-15T13:01:07.421Z,3164
2017-07-15T13:02:08.829Z,3272
2017-07-15T13:03:10.265Z,3072
2017-07-15T13:04:12.525Z,3280
2017-07-15T13:05:14.008Z,3388
2017-07-15T13:06:15.447Z,3524
2017-07-15T13:07:16.898Z,3376
2017-07-15T13:08:18.330Z,4044
2017-07-15T13:09:19.821Z,4480
2017-07-15T13:10:21.279Z,4644
2017-07-15T13:13:06.447Z,4308
2017-07-15T13:14:07.882Z,4140
2017-07-15T13:15:09.315Z,4048
2017-07-15T13:16:10.868Z,4144
2017-07-15T13:17:12.310Z,3984
2017-07-15T13:18:13.742Z,3888
2017-07-15T13:19:15.161Z,3712
2017-07-15T13:20:16.600Z,3660
2017-07-15T13:21:18.275Z,3704
2017-07-15T13:22:19.803Z,4076
2017-07-15T13:23:21.347Z,3700
2017-07-15T13:24:22.936Z,3880
2017-07-15T13:25:24.512Z,4044
2017-07-15T13:26:28.088Z,4148
2017-07-15T13:27:29.679Z,4444
2017-07-15T13:28:31.255Z,4556
2017-07-15T13:29:32.965Z,3956
2017-07-15T13:30:34.542Z,4440
2017-07-15T13:31:36.180Z,4404
2017-07-15T13:32:37.737Z,4520
2017-07-15T13:33:40.003Z,4796
2017-07-15T13:34:42.293Z,5064
2017-07-15T13:35:43.956Z,4960
2017-07-15T13:36:45.534Z,4408
2017-07-15T13:37:48.321Z,4656
2017-07-15T13:38:49.862Z,4832
2017-07-15T13:39:51.499Z,4564
2017-07-15T13:40:53.132Z,4484
2017-07-15T13:41:54.948Z,4468
2017-07-15T13:42:56.530Z,4292
2017-07-15T13:43:58.231Z,4032
2017-07-15T13:45:00.414Z,3720
2017-07-15T13:46:02.069Z,3580
2017-07-15T13:47:03.795Z,3620
2017-07-15T13:48:05.316Z,3836
2017-07-15T13:49:06.852Z,3868
2017-07-15T13:50:08.469Z,3572
2017-07-15T13:51:10.048Z,3184
2017-07-15T13:52:11.751Z,3360
2017-07-15T13:53:13.450Z,3508
2017-07-15T13:54:15.960Z,3836
2017-07-15T13:55:17.480Z,3784
2017-07-15T13:56:19.091Z,3808
2017-07-15T13:57:20.705Z,3976
2017-07-15T13:58:22.239Z,4308
2017-07-15T13:59:23.844Z,20256
2017-07-15T14:00:25.398Z,21184
2017-07-15T14:01:26.966Z,20480
2017-07-15T14:02:28.525Z,22592
2017-07-15T14:03:30.078Z,19072
2017-07-15T14:04:31.638Z,11192
2017-07-15T14:05:33.196Z,5648
2017-07-15T14:06:34.833Z,4856
2017-07-15T14:07:36.387Z,4608
2017-07-15T14:08:37.934Z,4592